createdAt,value
2023-03-17T00:00:22.693Z,99384.56
2023-03-17T00:02:50.117Z,99389.06
2023-03-17T00:05:20.680Z,99396.06
2023-03-17T00:07:48.130Z,99386.41
2023-03-17T00:10:24.033Z,99393.91
2023-03-17T00:12:55.616Z,99381.59
2023-03-17T00:15:23.788Z,99389.41
2023-03-17T00:17:50.761Z,99395.06
2023-03-17T00:20:32.036Z,99381.94
2023-03-17T00:23:00.416Z,99394.56
2023-03-17T00:25:29.424Z,99398.88
2023-03-17T00:27:58.357Z,99399.72
2023-03-17T00:30:28.383Z,99397.06
2023-03-17T00:32:57.668Z,99386.44
2023-03-17T00:35:29.094Z,99395.22
2023-03-17T00:37:57.794Z,99378.47
2023-03-17T00:40:29.672Z,99383.47
2023-03-17T00:42:58.304Z,99385.44
2023-03-17T00:45:27.181Z,99391.25
2023-03-17T00:47:56.303Z,99391.25
2023-03-17T00:50:26.479Z,99412.31
2023-03-17T00:52:56.637Z,99412.81
2023-03-17T00:55:26.624Z,99414.28
2023-03-17T00:57:54.500Z,99406.53
2023-03-17T01:00:29.805Z,99415.16
2023-03-17T01:02:57.544Z,99415.16
2023-03-17T01:05:26.198Z,99425.09
2023-03-17T01:07:57.919Z,99423.13
2023-03-17T01:10:28.190Z,99442.34
2023-03-17T01:12:59.125Z,99449.66
2023-03-17T01:15:31.663Z,99459.94
2023-03-17T01:18:01.613Z,99457.94
2023-03-17T01:20:32.889Z,99468.22
2023-03-17T01:23:01.621Z,99467.72
2023-03-17T01:25:29.314Z,99485.47
2023-03-17T01:28:00.564Z,99473.38
2023-03-17T01:30:38.787Z,99472.38
2023-03-17T01:33:08.589Z,99483.97
2023-03-17T01:35:36.972Z,99478.00
2023-03-17T01:38:05.088Z,99486.81
2023-03-17T01:40:37.462Z,99489.63
2023-03-17T01:43:17.488Z,99486.97
2023-03-17T01:46:24.917Z,99495.75
2023-03-17T01:49:15.734Z,99502.91
2023-03-17T01:52:14.400Z,99508.69
2023-03-17T01:54:56.356Z,99525.78
2023-03-17T01:57:28.667Z,99520.66
2023-03-17T02:00:03.140Z,99523.47
2023-03-17T02:02:46.201Z,99525.78
2023-03-17T02:05:17.111Z,99533.75
2023-03-17T02:07:45.255Z,99540.06
2023-03-17T02:10:13.745Z,99542.22
2023-03-17T02:12:42.587Z,99547.84
2023-03-17T02:15:10.921Z,99551.50
2023-03-17T02:17:57.948Z,99558.78
2023-03-17T02:20:24.798Z,99561.44
2023-03-17T02:22:55.026Z,99567.44
2023-03-17T02:25:23.955Z,99561.63
2023-03-17T02:27:57.380Z,99570.41
2023-03-17T02:30:25.456Z,99575.88
2023-03-17T02:32:52.730Z,99575.06
2023-03-17T02:35:22.449Z,99583.16
2023-03-17T02:37:49.360Z,99586.66
2023-03-17T02:40:16.757Z,99595.59
2023-03-17T02:42:43.768Z,99598.25
2023-03-17T02:45:12.820Z,99600.09
2023-03-17T02:47:40.218Z,99593.97
2023-03-17T02:50:08.704Z,99598.25
2023-03-17T02:52:35.829Z,99598.59
2023-03-17T02:55:02.759Z,99604.88
2023-03-17T02:57:30.072Z,99592.47
2023-03-17T02:59:57.205Z,99602.53
2023-03-17T03:02:24.109Z,99613.16
2023-03-17T03:04:51.128Z,99611.84
2023-03-17T03:07:18.143Z,99613.63
2023-03-17T03:09:45.602Z,99622.59
2023-03-17T03:12:13.942Z,99626.91
2023-03-17T03:14:41.162Z,99627.91
2023-03-17T03:17:09.778Z,99629.56
2023-03-17T03:19:36.671Z,99621.78
2023-03-17T03:22:03.884Z,99630.56
2023-03-17T03:24:30.855Z,99634.38
2023-03-17T03:26:57.796Z,99631.22
2023-03-17T03:29:24.718Z,99629.53
2023-03-17T03:31:51.796Z,99628.84
2023-03-17T03:34:19.067Z,99636.00
2023-03-17T03:36:46.121Z,99645.94
2023-03-17T03:39:14.504Z,99657.22
2023-03-17T03:41:41.864Z,99651.91
2023-03-17T03:44:08.825Z,99662.53
2023-03-17T03:46:35.915Z,99667.69
2023-03-17T03:49:02.960Z,99669.66
2023-03-17T03:51:29.885Z,99679.44
2023-03-17T03:53:56.837Z,99683.91
2023-03-17T03:56:23.742Z,99683.06
2023-03-17T03:58:51.619Z,99688.22
2023-03-17T04:01:18.780Z,99683.59
2023-03-17T04:03:47.467Z,99693.53
2023-03-17T04:06:14.991Z,99692.38
2023-03-17T04:08:43.037Z,99701.16
2023-03-17T04:11:10.281Z,99701.34
2023-03-17T04:13:38.001Z,99709.31
2023-03-17T04:16:05.286Z,99699.84
2023-03-17T04:18:32.252Z,99713.59
2023-03-17T04:20:59.607Z,99703.00
2023-03-17T04:23:26.630Z,99716.94
2023-03-17T04:25:54.138Z,99720.28
2023-03-17T04:28:22.480Z,99720.91
2023-03-17T04:30:49.438Z,99724.44
2023-03-17T04:33:16.846Z,99737.53
2023-03-17T04:35:44.088Z,99737.53
2023-03-17T04:38:13.301Z,99748.66
2023-03-17T04:40:40.869Z,99751.97
2023-03-17T04:43:08.014Z,99768.44
2023-03-17T04:45:35.085Z,99777.75
2023-03-17T04:48:02.087Z,99772.28
2023-03-17T04:50:29.567Z,99767.50
2023-03-17T04:52:56.685Z,99765.66
2023-03-17T04:55:23.634Z,99772.81
2023-03-17T04:57:50.684Z,99773.00
2023-03-17T05:00:18.294Z,99771.00
2023-03-17T05:02:45.195Z,99778.16
2023-03-17T05:05:13.024Z,99789.75
2023-03-17T05:07:40.351Z,99803.38
2023-03-17T05:10:08.013Z,99805.06
2023-03-17T05:12:34.985Z,99814.53
2023-03-17T05:15:01.981Z,99825.81
2023-03-17T05:17:33.501Z,99823.16
2023-03-17T05:20:00.659Z,99824.13
2023-03-17T05:22:27.592Z,99834.63
2023-03-17T05:24:54.529Z,99831.97
2023-03-17T05:27:21.901Z,99834.28
2023-03-17T05:29:49.915Z,99826.47
2023-03-17T05:32:16.937Z,99836.44
2023-03-17T05:34:45.203Z,99840.44
2023-03-17T05:37:12.882Z,99842.25
2023-03-17T05:39:40.261Z,99852.06
2023-03-17T05:42:08.556Z,99858.66
2023-03-17T05:44:35.589Z,99863.97
2023-03-17T05:47:03.019Z,99853.34
2023-03-17T05:49:30.041Z,99858.66
2023-03-17T05:51:57.062Z,99868.13
2023-03-17T05:54:24.308Z,99866.66
2023-03-17T05:56:51.596Z,99873.84
2023-03-17T05:59:18.672Z,99871.19
2023-03-17T06:01:45.769Z,99870.22
2023-03-17T06:04:12.834Z,99878.84
2023-03-17T06:06:40.152Z,99884.53
2023-03-17T06:09:07.246Z,99883.53
2023-03-17T06:11:34.710Z,99880.88
2023-03-17T06:14:02.186Z,99886.03
2023-03-17T06:16:30.911Z,99889.06
2023-03-17T06:18:57.948Z,99875.31
2023-03-17T06:21:25.004Z,99879.63
2023-03-17T06:23:52.209Z,99882.16
2023-03-17T06:26:19.206Z,99891.81
2023-03-17T06:28:46.704Z,99882.06
2023-03-17T06:31:13.608Z,99882.06
2023-03-17T06:33:40.941Z,99891.75
2023-03-17T06:36:08.949Z,99893.41
2023-03-17T06:38:35.902Z,99885.63
2023-03-17T06:41:03.493Z,99894.28
2023-03-17T06:43:31.543Z,99903.44
2023-03-17T06:46:01.045Z,99903.94
2023-03-17T06:48:28.815Z,99912.59
2023-03-17T06:50:55.726Z,99905.41
2023-03-17T06:53:22.714Z,99906.09
2023-03-17T06:55:49.784Z,99905.28
2023-03-17T06:58:17.101Z,99915.94
2023-03-17T07:00:47.251Z,99914.13
2023-03-17T07:03:14.907Z,99915.50
2023-03-17T07:05:42.326Z,99922.47
2023-03-17T07:08:09.491Z,99930.13
2023-03-17T07:10:36.910Z,99933.13
2023-03-17T07:13:06.117Z,99932.13
2023-03-17T07:15:35.282Z,99935.63
2023-03-17T07:18:02.694Z,99939.81
2023-03-17T07:20:29.836Z,99941.13
2023-03-17T07:22:57.308Z,99935.44
2023-03-17T07:25:24.538Z,99941.28
2023-03-17T07:27:52.101Z,99947.75
2023-03-17T07:30:19.472Z,99947.56
2023-03-17T07:32:47.949Z,99947.38
2023-03-17T07:35:15.660Z,99948.16
2023-03-17T07:37:45.667Z,99941.63
2023-03-17T07:40:12.882Z,99949.47
2023-03-17T07:42:39.896Z,99946.63
2023-03-17T07:45:08.092Z,99950.47
2023-03-17T07:47:35.082Z,99954.44
2023-03-17T07:50:03.253Z,99944.59
2023-03-17T07:52:30.860Z,99943.97
2023-03-17T07:54:58.946Z,99940.75
2023-03-17T07:57:25.905Z,99952.25
2023-03-17T07:59:52.994Z,99957.38
2023-03-17T08:02:20.308Z,99965.19
2023-03-17T08:04:47.706Z,99981.13
2023-03-17T08:07:15.679Z,99973.09
2023-03-17T08:09:42.962Z,99985.34
2023-03-17T08:12:11.760Z,99980.97
2023-03-17T08:14:38.714Z,99994.50
2023-03-17T08:17:06.586Z,99999.13
2023-03-17T08:19:33.689Z,100012.47
2023-03-17T08:22:01.458Z,100009.91
2023-03-17T08:24:28.580Z,100009.25
2023-03-17T08:26:55.530Z,100016.47
2023-03-17T08:29:22.547Z,100017.06
2023-03-17T08:31:49.634Z,100018.66
2023-03-17T08:34:16.675Z,100022.00
2023-03-17T08:36:44.464Z,100023.00
2023-03-17T08:39:11.940Z,100030.50
2023-03-17T08:41:38.849Z,100027.97
2023-03-17T08:44:05.925Z,100020.16
2023-03-17T08:46:33.553Z,100023.66
2023-03-17T08:49:01.182Z,100025.03
2023-03-17T08:51:34.551Z,100032.25
2023-03-17T08:54:02.439Z,100032.69
2023-03-17T08:56:29.646Z,100038.31
2023-03-17T08:58:56.803Z,100044.16
2023-03-17T09:01:24.595Z,100045.16
2023-03-17T09:03:55.170Z,100049.81
2023-03-17T09:06:23.460Z,100056.53
2023-03-17T09:08:55.492Z,100053.59
2023-03-17T09:11:26.141Z,100054.56
2023-03-17T09:13:53.930Z,100059.63
2023-03-17T09:16:23.305Z,100055.63
2023-03-17T09:18:50.519Z,100053.75
2023-03-17T09:21:17.767Z,100055.81
2023-03-17T09:23:44.631Z,100043.75
2023-03-17T09:26:12.813Z,100044.19
2023-03-17T09:28:39.896Z,100041.38
2023-03-17T09:31:11.519Z,100047.66
2023-03-17T09:33:41.013Z,100049.78
2023-03-17T09:36:12.172Z,100045.38
2023-03-17T09:38:39.452Z,100055.97
2023-03-17T09:41:40.667Z,100057.69
2023-03-17T09:44:30.289Z,100073.47
2023-03-17T09:47:18.424Z,100065.97
2023-03-17T09:49:50.693Z,100067.75
2023-03-17T09:52:20.420Z,100069.50
2023-03-17T09:54:49.828Z,100072.75
2023-03-17T09:57:29.566Z,100074.38
2023-03-17T10:00:06.974Z,100081.13
2023-03-17T10:02:40.019Z,100074.81
2023-03-17T10:05:35.633Z,100083.78
2023-03-17T10:08:10.859Z,100084.16
2023-03-17T10:10:50.038Z,100086.63
2023-03-17T10:13:56.038Z,100095.66
2023-03-17T10:16:32.629Z,100092.78
2023-03-17T10:19:05.601Z,100085.41
2023-03-17T10:21:34.487Z,100091.59
2023-03-17T10:24:03.727Z,100098.44
2023-03-17T10:26:42.068Z,100103.56
2023-03-17T10:29:15.102Z,100098.19
2023-03-17T10:31:42.396Z,100097.50
2023-03-17T10:34:17.866Z,100088.56
2023-03-17T10:36:51.583Z,100102.34
2023-03-17T10:39:20.702Z,100111.78
2023-03-17T10:41:55.732Z,100103.31
2023-03-17T10:45:03.286Z,100112.03
2023-03-17T10:47:35.807Z,100108.66
2023-03-17T10:50:23.071Z,100112.84
2023-03-17T10:53:01.850Z,100105.63
2023-03-17T10:55:34.350Z,100109.88
2023-03-17T10:58:23.988Z,100116.81
2023-03-17T11:01:29.779Z,100117.84
2023-03-17T11:03:58.170Z,100099.66
2023-03-17T11:06:42.333Z,100110.03
2023-03-17T11:09:13.329Z,100123.59
2023-03-17T11:11:48.115Z,100126.22
2023-03-17T11:14:18.807Z,100127.00
2023-03-17T11:17:00.258Z,100136.41
2023-03-17T11:19:58.704Z,100140.84
2023-03-17T11:22:35.447Z,100129.97
2023-03-17T11:25:23.714Z,100148.25
2023-03-17T11:28:06.728Z,100144.28
2023-03-17T11:30:37.638Z,100143.16
2023-03-17T11:33:05.694Z,100150.16
2023-03-17T11:35:46.932Z,100137.88
2023-03-17T11:38:20.286Z,100147.13
2023-03-17T11:40:47.802Z,100144.28
2023-03-17T11:43:44.004Z,100145.66
2023-03-17T11:46:24.722Z,100146.88
2023-03-17T11:49:06.890Z,100141.84
2023-03-17T11:52:03.644Z,100141.09
2023-03-17T11:54:40.017Z,100144.22
2023-03-17T11:57:15.551Z,100138.03
2023-03-17T11:59:52.160Z,100143.63
2023-03-17T12:02:41.475Z,100141.19
2023-03-17T12:05:13.765Z,100148.69
2023-03-17T12:07:54.945Z,100150.09
2023-03-17T12:10:37.819Z,100151.91
2023-03-17T12:13:19.907Z,100156.84
2023-03-17T12:15:51.100Z,100161.34
2023-03-17T12:18:23.905Z,100161.53
2023-03-17T12:21:14.695Z,100161.28
2023-03-17T12:23:50.273Z,100157.97
2023-03-17T12:26:28.881Z,100161.50
2023-03-17T12:29:04.952Z,100167.41
2023-03-17T12:31:35.406Z,100167.69
2023-03-17T12:34:03.322Z,100168.53
2023-03-17T12:36:30.374Z,100173.81
2023-03-17T12:39:01.999Z,100167.69
2023-03-17T12:41:47.670Z,100169.41
2023-03-17T12:44:27.266Z,100170.28
2023-03-17T12:47:28.645Z,100172.13
2023-03-17T12:50:04.732Z,100171.69
2023-03-17T12:52:43.525Z,100182.28
2023-03-17T12:55:14.295Z,100181.03
2023-03-17T12:57:47.411Z,100181.13
2023-03-17T13:00:18.543Z,100179.69
2023-03-17T13:03:09.479Z,100189.72
2023-03-17T13:05:37.701Z,100192.53
2023-03-17T13:08:07.703Z,100194.19
2023-03-17T13:10:48.751Z,100191.34
2023-03-17T13:13:23.453Z,100191.16
2023-03-17T13:15:53.891Z,100195.84
2023-03-17T13:18:20.798Z,100194.31
2023-03-17T13:21:00.500Z,100196.56
2023-03-17T13:23:55.438Z,100193.38
2023-03-17T13:26:59.933Z,100205.78
2023-03-17T13:29:40.067Z,100200.41
2023-03-17T13:32:16.159Z,100211.47
2023-03-17T13:34:50.012Z,100201.53
2023-03-17T13:37:31.021Z,100203.00
2023-03-17T13:40:10.258Z,100201.84
2023-03-17T13:42:38.137Z,100201.97
2023-03-17T13:45:32.984Z,100213.06
2023-03-17T13:48:32.490Z,100223.59
2023-03-17T13:51:13.184Z,100222.38
2023-03-17T13:53:51.862Z,100220.34
2023-03-17T13:56:23.073Z,100219.19
2023-03-17T13:59:01.960Z,100229.53
2023-03-17T14:01:32.599Z,100227.63
2023-03-17T14:04:03.241Z,100234.59
2023-03-17T14:06:34.519Z,100230.50
2023-03-17T14:09:08.598Z,100239.47
2023-03-17T14:11:38.503Z,100237.84
2023-03-17T14:14:44.921Z,100236.53
2023-03-17T14:17:21.234Z,100241.28
2023-03-17T14:20:00.776Z,100241.56
2023-03-17T14:22:27.980Z,100242.81
2023-03-17T14:24:59.082Z,100248.53
2023-03-17T14:27:27.307Z,100257.81
2023-03-17T14:29:54.320Z,100262.06
2023-03-17T14:32:26.401Z,100262.41
2023-03-17T14:34:59.778Z,100258.97
2023-03-17T14:37:28.398Z,100272.75
2023-03-17T14:39:57.729Z,100278.59
2023-03-17T14:42:32.118Z,100277.09
2023-03-17T14:45:07.351Z,100276.53
2023-03-17T14:47:40.524Z,100281.50
2023-03-17T14:50:17.618Z,100283.53
2023-03-17T14:52:44.889Z,100293.50
2023-03-17T14:55:14.661Z,100294.91
2023-03-17T14:57:41.830Z,100300.03
2023-03-17T15:00:53.479Z,100300.59
2023-03-17T15:03:22.903Z,100299.19
2023-03-17T15:05:50.542Z,100305.28
2023-03-17T15:08:41.307Z,100301.97
2023-03-17T15:11:09.111Z,100303.34
2023-03-17T15:13:38.037Z,100316.03
2023-03-17T15:16:18.206Z,100311.03
2023-03-17T15:18:45.613Z,100315.72
2023-03-17T15:21:32.602Z,100324.56
2023-03-17T15:24:05.039Z,100325.19
2023-03-17T15:26:32.370Z,100325.69
2023-03-17T15:29:00.700Z,100329.31
2023-03-17T15:31:30.303Z,100340.97
2023-03-17T15:33:57.985Z,100333.91
2023-03-17T15:36:32.708Z,100344.56
2023-03-17T15:39:01.290Z,100337.69
2023-03-17T15:41:28.507Z,100342.28
2023-03-17T15:43:55.520Z,100348.72
2023-03-17T15:46:27.420Z,100352.63
2023-03-17T15:48:54.632Z,100359.94
2023-03-17T15:51:22.151Z,100356.56
2023-03-17T15:53:49.298Z,100360.22
2023-03-17T15:56:21.140Z,100373.31
2023-03-17T15:58:49.385Z,100368.41
2023-03-17T16:01:17.104Z,100372.97
2023-03-17T16:03:45.591Z,100377.09
2023-03-17T16:06:21.432Z,100387.00
2023-03-17T16:08:49.347Z,100387.06
2023-03-17T16:11:20.461Z,100395.34
2023-03-17T16:13:47.585Z,100400.13
2023-03-17T16:16:21.665Z,100409.56
2023-03-17T16:18:51.088Z,100410.16
2023-03-17T16:21:19.235Z,100413.34
2023-03-17T16:23:46.668Z,100415.50
2023-03-17T16:26:15.914Z,100427.53
2023-03-17T16:28:45.653Z,100424.84
2023-03-17T16:31:33.196Z,100436.09
2023-03-17T16:34:00.247Z,100444.56
2023-03-17T16:36:27.279Z,100445.50
2023-03-17T16:38:54.266Z,100449.28
2023-03-17T16:41:24.363Z,100448.13
2023-03-17T16:44:01.350Z,100457.28
2023-03-17T16:46:34.459Z,100453.94
2023-03-17T16:49:04.191Z,100453.03
2023-03-17T16:51:31.272Z,100461.13
2023-03-17T16:53:59.308Z,100461.44
2023-03-17T16:56:27.591Z,100463.91
2023-03-17T16:58:54.655Z,100464.09
2023-03-17T17:01:26.521Z,100481.59
2023-03-17T17:03:54.197Z,100474.34
2023-03-17T17:06:22.444Z,100478.91
2023-03-17T17:08:50.821Z,100482.44
2023-03-17T17:11:19.572Z,100489.59
2023-03-17T17:13:47.970Z,100488.78
2023-03-17T17:16:26.717Z,100492.13
2023-03-17T17:18:53.990Z,100486.97
2023-03-17T17:21:21.036Z,100494.66
2023-03-17T17:23:47.958Z,100489.22
2023-03-17T17:26:15.167Z,100491.47
2023-03-17T17:28:42.844Z,100494.53
2023-03-17T17:31:10.694Z,100499.56
2023-03-17T17:33:39.273Z,100496.19
2023-03-17T17:36:14.790Z,100506.81
2023-03-17T17:38:44.612Z,100506.50
2023-03-17T17:41:12.414Z,100508.50
2023-03-17T17:43:40.021Z,100518.28
2023-03-17T17:46:12.162Z,100516.44
2023-03-17T17:48:54.680Z,100513.75
2023-03-17T17:51:22.331Z,100523.00
2023-03-17T17:53:49.397Z,100523.13
2023-03-17T17:56:22.893Z,100536.94
2023-03-17T17:58:50.642Z,100538.44
2023-03-17T18:01:22.049Z,100538.59
2023-03-17T18:03:49.141Z,100537.47
2023-03-17T18:06:18.010Z,100542.06
2023-03-17T18:08:45.016Z,100544.47
2023-03-17T18:11:14.353Z,100546.41
2023-03-17T18:13:41.585Z,100551.75
2023-03-17T18:16:10.162Z,100551.09
2023-03-17T18:18:40.655Z,100555.97
2023-03-17T18:21:08.454Z,100558.88
2023-03-17T18:23:36.643Z,100560.38
2023-03-17T18:26:06.069Z,100566.19
2023-03-17T18:28:33.132Z,100563.09
2023-03-17T18:31:05.668Z,100567.84
2023-03-17T18:33:32.799Z,100573.66
2023-03-17T18:35:59.883Z,100585.66
2023-03-17T18:38:26.893Z,100584.06
2023-03-17T18:40:53.784Z,100588.41
2023-03-17T18:43:21.402Z,100586.41
2023-03-17T18:45:48.319Z,100595.91
2023-03-17T18:48:15.551Z,100596.03
2023-03-17T18:50:42.776Z,100592.09
2023-03-17T18:53:09.665Z,100587.63
2023-03-17T18:55:36.739Z,100602.97
2023-03-17T18:58:03.944Z,100600.75
2023-03-17T19:00:31.254Z,100603.41
2023-03-17T19:02:58.376Z,100607.63
2023-03-17T19:05:25.735Z,100608.78
2023-03-17T19:07:52.739Z,100613.31
2023-03-17T19:10:19.740Z,100612.41
2023-03-17T19:12:47.415Z,100618.53
2023-03-17T19:15:14.755Z,100622.66
2023-03-17T19:17:41.968Z,100621.75
2023-03-17T19:20:10.253Z,100625.69
2023-03-17T19:22:37.269Z,100622.53
2023-03-17T19:25:04.483Z,100627.75
2023-03-17T19:27:31.672Z,100626.22
2023-03-17T19:29:58.602Z,100629.88
2023-03-17T19:32:25.842Z,100628.97
2023-03-17T19:34:53.184Z,100628.06
2023-03-17T19:37:20.194Z,100629.97
2023-03-17T19:39:47.118Z,100632.53
2023-03-17T19:42:16.324Z,100632.16
2023-03-17T19:44:44.876Z,100632.06
2023-03-17T19:47:12.076Z,100637.44
2023-03-17T19:49:39.121Z,100632.03
2023-03-17T19:52:07.719Z,100636.78
2023-03-17T19:54:35.070Z,100641.13
2023-03-17T19:57:02.202Z,100636.31
2023-03-17T19:59:29.131Z,100644.03
2023-03-17T20:01:56.103Z,100647.88
2023-03-17T20:04:23.330Z,100644.03
2023-03-17T20:06:55.726Z,100640.69
2023-03-17T20:09:26.196Z,100653.22
2023-03-17T20:11:53.983Z,100639.13
2023-03-17T20:14:21.220Z,100646.84
2023-03-17T20:16:48.698Z,100646.94
2023-03-17T20:19:16.453Z,100645.13
2023-03-17T20:21:43.543Z,100646.47
2023-03-17T20:24:12.520Z,100648.28
2023-03-17T20:26:39.925Z,100654.19
2023-03-17T20:29:08.191Z,100655.97
2023-03-17T20:31:36.140Z,100642.03
2023-03-17T20:34:03.257Z,100654.66
2023-03-17T20:36:30.164Z,100656.59
2023-03-17T20:38:57.133Z,100654.53
2023-03-17T20:41:24.223Z,100660.19
2023-03-17T20:43:51.332Z,100665.97
2023-03-17T20:46:21.762Z,100664.88
2023-03-17T20:48:48.915Z,100662.09
2023-03-17T20:51:17.097Z,100667.88
2023-03-17T20:53:55.310Z,100670.03
2023-03-17T20:56:24.289Z,100667.03
2023-03-17T20:58:53.313Z,100673.66
2023-03-17T21:01:21.611Z,100674.34
2023-03-17T21:03:51.646Z,100667.00
2023-03-17T21:06:19.870Z,100671.94
2023-03-17T21:08:47.319Z,100661.63
2023-03-17T21:11:17.986Z,100678.94
2023-03-17T21:13:47.774Z,100677.13
2023-03-17T21:16:24.090Z,100679.91
2023-03-17T21:18:51.638Z,100680.13
2023-03-17T21:21:19.932Z,100679.88
2023-03-17T21:23:47.131Z,100673.03
2023-03-17T21:26:14.796Z,100672.09
2023-03-17T21:28:42.707Z,100678.19
2023-03-17T21:31:14.120Z,100687.34
2023-03-17T21:33:42.274Z,100679.16
2023-03-17T21:36:12.891Z,100693.31
2023-03-17T21:38:40.032Z,100696.34
2023-03-17T21:41:39.631Z,100691.66
2023-03-17T21:44:07.975Z,100696.69
2023-03-17T21:46:35.093Z,100698.84
2023-03-17T21:49:02.426Z,100704.97
2023-03-17T21:51:30.506Z,100708.34
2023-03-17T21:54:00.764Z,100708.19
2023-03-17T21:56:29.753Z,100715.31
2023-03-17T21:58:57.800Z,100715.88
2023-03-17T22:01:26.371Z,100707.81
2023-03-17T22:03:53.446Z,100717.56
2023-03-17T22:06:21.234Z,100715.38
2023-03-17T22:08:48.922Z,100719.69
2023-03-17T22:11:17.855Z,100729.19
2023-03-17T22:13:45.262Z,100713.91
2023-03-17T22:16:13.051Z,100732.16
2023-03-17T22:18:40.151Z,100737.09
2023-03-17T22:21:08.360Z,100732.88
2023-03-17T22:23:41.174Z,100739.72
2023-03-17T22:26:19.075Z,100738.16
2023-03-17T22:28:47.518Z,100739.22
2023-03-17T22:31:20.504Z,100741.25
2023-03-17T22:33:49.198Z,100746.19
2023-03-17T22:36:16.584Z,100740.50
2023-03-17T22:38:43.820Z,100746.75
2023-03-17T22:41:16.636Z,100748.91
2023-03-17T22:43:43.983Z,100754.75
2023-03-17T22:46:11.743Z,100753.91
2023-03-17T22:48:40.279Z,100757.28
2023-03-17T22:51:10.359Z,100763.16
2023-03-17T22:53:39.191Z,100763.16
2023-03-17T22:56:07.252Z,100772.59
2023-03-17T22:58:34.213Z,100772.06
2023-03-17T23:01:01.428Z,100773.03
2023-03-17T23:03:28.933Z,100771.47
2023-03-17T23:05:58.562Z,100778.78
2023-03-17T23:08:27.298Z,100776.44
2023-03-17T23:10:54.924Z,100786.16
2023-03-17T23:13:22.449Z,100781.28
2023-03-17T23:15:49.416Z,100778.16
2023-03-17T23:18:17.564Z,100789.53
2023-03-17T23:20:45.145Z,100790.28
2023-03-17T23:23:12.426Z,100788.38
2023-03-17T23:25:39.630Z,100792.19
2023-03-17T23:28:07.744Z,100783.31
2023-03-17T23:30:35.933Z,100787.25
2023-03-17T23:33:05.002Z,100795.38
2023-03-17T23:35:32.451Z,100795.81
2023-03-17T23:37:59.768Z,100798.97
2023-03-17T23:40:26.659Z,100804.03
2023-03-17T23:42:55.201Z,100797.69
2023-03-17T23:45:23.331Z,100803.69
2023-03-17T23:47:51.695Z,100818.06
2023-03-17T23:50:19.552Z,100815.66
2023-03-17T23:52:47.281Z,100811.88
2023-03-17T23:55:16.143Z,100821.59
2023-03-17T23:57:44.287Z,100821.59
